createdAt,value
2023-03-22T00:02:13.679Z,94157.66
2023-03-22T00:04:42.958Z,94147.47
2023-03-22T00:07:09.653Z,94158.69
2023-03-22T00:09:36.623Z,94146.31
2023-03-22T00:12:03.934Z,94145.88
2023-03-22T00:14:30.554Z,94143.50
2023-03-22T00:16:57.173Z,94145.50
2023-03-22T00:19:23.876Z,94142.75
2023-03-22T00:21:51.439Z,94138.06
2023-03-22T00:24:18.191Z,94140.31
2023-03-22T00:26:47.026Z,94135.19
2023-03-22T00:29:14.230Z,94135.00
2023-03-22T00:31:41.718Z,94126.44
2023-03-22T00:34:08.405Z,94129.94
2023-03-22T00:36:37.801Z,94128.41
2023-03-22T00:39:04.394Z,94130.25
2023-03-22T00:41:30.988Z,94128.19
2023-03-22T00:43:57.535Z,94130.16
2023-03-22T00:46:24.147Z,94127.34
2023-03-22T00:48:50.882Z,94115.63
2023-03-22T00:51:18.083Z,94118.69
2023-03-22T00:53:45.271Z,94113.94
2023-03-22T00:56:16.028Z,94113.50
2023-03-22T00:59:00.318Z,94108.72
2023-03-22T01:01:29.460Z,94103.69
2023-03-22T01:03:56.066Z,94102.00
2023-03-22T01:06:22.703Z,94102.72
2023-03-22T01:08:50.871Z,94095.63
2023-03-22T01:11:18.040Z,94094.44
2023-03-22T01:13:45.582Z,94087.69
2023-03-22T01:16:12.236Z,94090.03
2023-03-22T01:18:40.804Z,94088.78
2023-03-22T01:21:08.698Z,94082.56
2023-03-22T01:23:37.280Z,94085.38
2023-03-22T01:26:05.229Z,94087.97
2023-03-22T01:28:31.963Z,94085.94
2023-03-22T01:31:02.959Z,94084.41
2023-03-22T01:33:30.304Z,94088.19
2023-03-22T01:35:56.948Z,94084.22
2023-03-22T01:38:23.964Z,94076.81
2023-03-22T01:40:55.695Z,94078.22
2023-03-22T01:43:22.454Z,94085.94
2023-03-22T01:45:51.535Z,94082.88
2023-03-22T01:48:27.907Z,94082.91
2023-03-22T01:51:22.579Z,94081.25
2023-03-22T01:54:10.629Z,94084.44
2023-03-22T01:56:41.026Z,94085.63
2023-03-22T01:59:14.636Z,94076.31
2023-03-22T02:02:05.909Z,94077.72
2023-03-22T02:04:36.733Z,94063.25
2023-03-22T02:07:15.333Z,94058.19
2023-03-22T02:09:43.832Z,94054.28
2023-03-22T02:12:32.207Z,94061.50
2023-03-22T02:15:35.880Z,94058.38
2023-03-22T02:18:46.907Z,94056.72
2023-03-22T02:21:16.374Z,94060.47
2023-03-22T02:24:25.144Z,94054.25
2023-03-22T02:27:06.382Z,94060.75
2023-03-22T02:29:46.395Z,94064.31
2023-03-22T02:32:12.968Z,94058.88
2023-03-22T02:35:04.567Z,94056.34
2023-03-22T02:37:52.447Z,94058.47
2023-03-22T02:40:39.898Z,94054.19
2023-03-22T02:43:30.954Z,94047.63
2023-03-22T02:46:06.212Z,94043.75
2023-03-22T02:48:40.429Z,94042.63
2023-03-22T02:51:13.614Z,94042.22
2023-03-22T02:53:52.464Z,94044.56
2023-03-22T02:56:33.723Z,94039.63
2023-03-22T02:59:04.367Z,94046.78
2023-03-22T03:01:38.042Z,94045.81
2023-03-22T03:04:09.723Z,94049.72
2023-03-22T03:06:39.864Z,94045.16
2023-03-22T03:09:08.445Z,94052.38
2023-03-22T03:11:35.211Z,94057.56
2023-03-22T03:14:01.893Z,94055.47
2023-03-22T03:16:34.978Z,94061.28
2023-03-22T03:19:20.340Z,94062.06
2023-03-22T03:22:04.160Z,94056.22
2023-03-22T03:24:39.354Z,94057.28
2023-03-22T03:27:17.613Z,94059.31
2023-03-22T03:30:11.607Z,94065.91
2023-03-22T03:32:47.918Z,94063.97
2023-03-22T03:35:25.584Z,94060.38
2023-03-22T03:38:02.614Z,94062.28
2023-03-22T03:40:41.164Z,94061.56
2023-03-22T03:43:09.774Z,94071.22
2023-03-22T03:45:37.691Z,94065.38
2023-03-22T03:48:09.147Z,94071.53
2023-03-22T03:50:37.330Z,94069.69
2023-03-22T03:53:04.836Z,94066.22
2023-03-22T03:55:32.789Z,94065.72
2023-03-22T03:57:59.430Z,94056.66
2023-03-22T04:00:26.049Z,94058.25
2023-03-22T04:03:19.109Z,94052.00
2023-03-22T04:06:00.122Z,94063.53
2023-03-22T04:08:28.567Z,94057.34
2023-03-22T04:10:55.385Z,94057.28
2023-03-22T04:13:22.036Z,94054.50
2023-03-22T04:15:53.919Z,94051.34
2023-03-22T04:18:21.321Z,94055.13
2023-03-22T04:20:49.502Z,94052.84
2023-03-22T04:23:16.816Z,94045.88
2023-03-22T04:25:50.091Z,94043.22
2023-03-22T04:28:24.017Z,94041.59
2023-03-22T04:30:52.350Z,94041.16
2023-03-22T04:33:56.121Z,94042.91
2023-03-22T04:36:36.582Z,94039.81
2023-03-22T04:39:13.675Z,94034.34
2023-03-22T04:41:44.949Z,94028.09
2023-03-22T04:44:11.840Z,94029.50
2023-03-22T04:46:44.627Z,94022.41
2023-03-22T04:49:11.366Z,94026.31
2023-03-22T04:51:40.404Z,94023.66
2023-03-22T04:54:28.511Z,94030.91
2023-03-22T04:56:55.498Z,94028.88
2023-03-22T04:59:24.030Z,94031.56
2023-03-22T05:01:51.497Z,94035.50
2023-03-22T05:04:22.237Z,94028.94
2023-03-22T05:06:53.773Z,94027.94
2023-03-22T05:09:26.298Z,94032.50
2023-03-22T05:11:54.108Z,94030.16
2023-03-22T05:14:37.976Z,94031.97
2023-03-22T05:17:06.598Z,94037.13
2023-03-22T05:19:36.437Z,94022.59
2023-03-22T05:22:03.062Z,94019.63
2023-03-22T05:24:41.169Z,94022.88
2023-03-22T05:27:14.165Z,94019.03
2023-03-22T05:29:45.103Z,94017.38
2023-03-22T05:32:29.156Z,94017.75
2023-03-22T05:34:56.357Z,94021.44
2023-03-22T05:37:32.560Z,94021.59
2023-03-22T05:39:59.984Z,94021.88
2023-03-22T05:42:36.479Z,94020.81
2023-03-22T05:45:12.563Z,94022.53
2023-03-22T05:47:41.381Z,94016.91
2023-03-22T05:50:17.766Z,94023.44
2023-03-22T05:52:45.579Z,94019.75
2023-03-22T05:55:20.371Z,94026.19
2023-03-22T05:57:51.521Z,94025.13
2023-03-22T06:00:18.865Z,94024.41
2023-03-22T06:03:05.538Z,94026.25
2023-03-22T06:05:38.139Z,94027.50
2023-03-22T06:08:04.902Z,94024.97
2023-03-22T06:10:31.591Z,94021.47
2023-03-22T06:12:58.345Z,94021.91
2023-03-22T06:15:28.932Z,94025.88
2023-03-22T06:18:05.372Z,94030.59
2023-03-22T06:20:37.045Z,94033.63
2023-03-22T06:23:09.636Z,94031.84
2023-03-22T06:25:38.469Z,94039.97
2023-03-22T06:28:08.541Z,94034.31
2023-03-22T06:30:36.313Z,94039.03
2023-03-22T06:33:26.106Z,94041.34
2023-03-22T06:35:59.714Z,94039.84
2023-03-22T06:38:32.849Z,94043.59
2023-03-22T06:40:59.562Z,94045.34
2023-03-22T06:43:27.324Z,94036.13
2023-03-22T06:46:01.500Z,94040.97
2023-03-22T06:48:34.338Z,94038.00
2023-03-22T06:51:06.793Z,94036.13
2023-03-22T06:53:35.486Z,94038.28
2023-03-22T06:56:03.789Z,94031.44
2023-03-22T06:58:34.815Z,94023.81
2023-03-22T07:01:01.637Z,94034.09
2023-03-22T07:03:31.769Z,94036.25
2023-03-22T07:06:06.922Z,94018.19
2023-03-22T07:08:37.707Z,94019.09
2023-03-22T07:11:06.328Z,94018.81
2023-03-22T07:13:33.533Z,94023.25
2023-03-22T07:16:03.963Z,94030.47
2023-03-22T07:18:43.722Z,94032.50
2023-03-22T07:21:10.699Z,94027.53
2023-03-22T07:23:39.930Z,94021.44
2023-03-22T07:26:10.767Z,94024.31
2023-03-22T07:28:41.527Z,94020.19
2023-03-22T07:31:12.058Z,94014.41
2023-03-22T07:34:00.425Z,94019.59
2023-03-22T07:36:29.980Z,94026.28
2023-03-22T07:38:57.104Z,94021.34
2023-03-22T07:41:33.920Z,94016.75
2023-03-22T07:44:33.067Z,94016.81
2023-03-22T07:47:40.025Z,94005.91
2023-03-22T07:50:27.824Z,94006.66
2023-03-22T07:52:56.759Z,94003.13
2023-03-22T07:55:24.190Z,94000.34
2023-03-22T07:57:51.255Z,94008.88
2023-03-22T08:00:18.498Z,94009.22
2023-03-22T08:02:54.719Z,94005.59
2023-03-22T08:05:51.984Z,94015.31
2023-03-22T08:08:20.623Z,94010.56
2023-03-22T08:10:51.573Z,94014.38
2023-03-22T08:13:18.223Z,94017.00
2023-03-22T08:15:44.829Z,94014.16
2023-03-22T08:18:11.461Z,94013.66
2023-03-22T08:20:40.062Z,94011.13
2023-03-22T08:23:15.967Z,94011.41
2023-03-22T08:25:58.067Z,94003.50
2023-03-22T08:28:24.708Z,94013.97
2023-03-22T08:30:51.652Z,94010.69
2023-03-22T08:33:22.039Z,94006.19
2023-03-22T08:35:48.680Z,94006.88
2023-03-22T08:38:15.566Z,94010.28
2023-03-22T08:40:47.417Z,94011.66
2023-03-22T08:43:17.359Z,94002.47
2023-03-22T08:45:44.496Z,94002.22
2023-03-22T08:48:15.608Z,93994.13
2023-03-22T08:51:21.492Z,93991.47
2023-03-22T08:54:02.298Z,94000.69
2023-03-22T08:56:50.221Z,94003.63
2023-03-22T08:59:38.213Z,93999.09
2023-03-22T09:02:27.431Z,93995.66
2023-03-22T09:04:55.373Z,93986.78
2023-03-22T09:07:22.481Z,93991.13
2023-03-22T09:09:58.548Z,93982.31
2023-03-22T09:12:26.249Z,93982.81
2023-03-22T09:14:53.852Z,93983.34
2023-03-22T09:17:22.572Z,93984.06
2023-03-22T09:19:51.407Z,93981.91
2023-03-22T09:22:21.056Z,93984.59
2023-03-22T09:24:50.435Z,93985.78
2023-03-22T09:27:17.387Z,93982.28
2023-03-22T09:29:43.961Z,93980.13
2023-03-22T09:32:17.167Z,93978.41
2023-03-22T09:34:48.180Z,93978.88
2023-03-22T09:37:15.191Z,93984.28
2023-03-22T09:39:49.268Z,93983.94
2023-03-22T09:42:28.316Z,93973.06
2023-03-22T09:44:56.849Z,93971.09
2023-03-22T09:47:45.194Z,93967.19
2023-03-22T09:50:18.644Z,93961.53
2023-03-22T09:52:45.218Z,93957.69
2023-03-22T09:55:37.575Z,93952.38
2023-03-22T09:58:28.610Z,93939.25
2023-03-22T10:01:14.594Z,93947.41
2023-03-22T10:04:07.824Z,93942.22
2023-03-22T10:06:34.481Z,93943.59
2023-03-22T10:09:20.776Z,93932.31
2023-03-22T10:11:53.670Z,93941.28
2023-03-22T10:15:01.859Z,93939.41
2023-03-22T10:17:29.925Z,93927.91
2023-03-22T10:20:09.109Z,93926.53
2023-03-22T10:22:40.764Z,93933.56
2023-03-22T10:25:08.741Z,93934.88
2023-03-22T10:27:36.975Z,93930.50
2023-03-22T10:30:21.189Z,93929.41
2023-03-22T10:33:16.847Z,93926.94
2023-03-22T10:35:44.082Z,93918.56
2023-03-22T10:38:21.860Z,93916.22
2023-03-22T10:40:50.066Z,93912.94
2023-03-22T10:43:31.757Z,93911.63
2023-03-22T10:46:01.223Z,93908.00
2023-03-22T10:48:33.099Z,93909.16
2023-03-22T10:51:01.302Z,93907.63
2023-03-22T10:53:47.761Z,93910.47
2023-03-22T10:56:16.920Z,93918.41
2023-03-22T10:58:43.526Z,93909.03
2023-03-22T11:01:29.482Z,93910.22
2023-03-22T11:04:16.478Z,93903.13
2023-03-22T11:06:54.711Z,93900.75
2023-03-22T11:09:24.393Z,93909.31
2023-03-22T11:12:03.619Z,93908.16
2023-03-22T11:14:42.079Z,93915.38
2023-03-22T11:17:14.864Z,93905.47
2023-03-22T11:19:53.975Z,93903.13
2023-03-22T11:22:40.513Z,93910.16
2023-03-22T11:25:34.059Z,93899.00
2023-03-22T11:28:16.372Z,93905.75
2023-03-22T11:30:58.696Z,93891.78
2023-03-22T11:33:28.775Z,93902.03
2023-03-22T11:35:57.657Z,93886.75
2023-03-22T11:38:35.562Z,93892.69
2023-03-22T11:41:06.577Z,93899.25
2023-03-22T11:43:37.120Z,93887.19
2023-03-22T11:46:05.270Z,93883.63
2023-03-22T11:48:33.310Z,93878.06
2023-03-22T11:51:12.462Z,93884.34
2023-03-22T11:53:42.597Z,93877.44
2023-03-22T11:56:11.460Z,93872.66
2023-03-22T11:58:48.555Z,93871.00
2023-03-22T12:01:21.577Z,93871.66
2023-03-22T12:03:54.507Z,93863.88
2023-03-22T12:06:31.883Z,93851.47
2023-03-22T12:09:19.114Z,93852.59
2023-03-22T12:11:49.620Z,93858.88
2023-03-22T12:14:23.305Z,93857.47
2023-03-22T12:16:59.277Z,93858.88
2023-03-22T12:19:28.785Z,93866.13
2023-03-22T12:21:56.235Z,93854.41
2023-03-22T12:24:27.229Z,93851.06
2023-03-22T12:27:25.626Z,93850.31
2023-03-22T12:29:59.273Z,93853.69
2023-03-22T12:32:30.849Z,93844.91
2023-03-22T12:35:14.078Z,93859.41
2023-03-22T12:37:47.642Z,93855.69
2023-03-22T12:40:16.867Z,93849.97
2023-03-22T12:43:07.880Z,93852.47
2023-03-22T12:45:40.468Z,93864.31
2023-03-22T12:48:14.399Z,93848.72
2023-03-22T12:50:49.480Z,93837.31
2023-03-22T12:53:18.771Z,93843.81
2023-03-22T12:55:47.208Z,93844.59
2023-03-22T12:58:19.813Z,93844.59
2023-03-22T13:00:59.402Z,93849.50
2023-03-22T13:03:27.005Z,93846.13
2023-03-22T13:06:06.324Z,93859.84
2023-03-22T13:09:01.960Z,93848.59
2023-03-22T13:11:28.562Z,93837.19
2023-03-22T13:13:55.092Z,93830.41
2023-03-22T13:16:24.586Z,93815.00
2023-03-22T13:18:51.215Z,93823.50
2023-03-22T13:21:21.246Z,93833.13
2023-03-22T13:24:01.052Z,93819.50
2023-03-22T13:26:58.953Z,93836.41
2023-03-22T13:29:37.502Z,93824.31
2023-03-22T13:32:28.582Z,93821.03
2023-03-22T13:34:55.827Z,93809.56
2023-03-22T13:37:35.702Z,93811.47
2023-03-22T13:40:22.128Z,93811.75
2023-03-22T13:42:50.680Z,93811.91
2023-03-22T13:45:33.971Z,93798.78
2023-03-22T13:48:13.354Z,93825.00
2023-03-22T13:50:40.388Z,93810.69
2023-03-22T13:53:22.832Z,93796.06
2023-03-22T13:55:51.420Z,93792.75
2023-03-22T13:58:30.966Z,93800.19
2023-03-22T14:00:58.031Z,93801.78
2023-03-22T14:03:35.765Z,93789.72
2023-03-22T14:06:15.172Z,93805.91
2023-03-22T14:08:44.172Z,93790.31
2023-03-22T14:11:17.997Z,93789.22
2023-03-22T14:13:51.326Z,93775.38
2023-03-22T14:16:48.661Z,93782.22
2023-03-22T14:19:29.073Z,93783.72
